SEASEATTLE-TACOMA INTL
METARs for airports near SEA, sorted by distance:
N 0 nm 432' KSEA 021853Z 19010KT 10SM SCT014 SCT046 BKN080 09/02 A3018
NE 4 nm 32' KRNT 021853Z 17007KT 10SM FEW030 BKN060 OVC085 09/01 A3019
N 4 nm 21' KBFI 021853Z 23008KT 10SM SCT030 BKN050 BKN085 08/02 A3019
SW 15 nm 294' KTIW 021853Z 20007KT 10SM FEW080 08/02 A3018
W 18 nm 444' KPWT 021856Z VRB05KT 10SM FEW021 SCT065 08/02 A3017
S 19 nm 322' KTCM 021858Z 20007KT 10SM FEW038 SCT055 09/00 A3018
S 20 nm 537' KPLU 021915Z 00000KT 10SM FEW021 BKN025 OVC047 07/03 A3019
SW 24 nm 301' KGRF 021858Z 22007KT 10SM FEW037 SCT044 SCT060 BKN080 08/02 A3018
N 27 nm 607' KPAE 021853Z 24004KT 10SM BKN017 BKN022 OVC030 06/02 A3017
W 36 nm 272' KSHN 021853Z 26007KT 10SM -RA FEW013 FEW019 OVC038 05/02 A3018
SW 37 nm 207' KOLM 021854Z 24008KT 10SM FEW022 SCT035 BKN065 08/00 A3019
N 43 nm 141' KAWO 021918Z 00000KT 10SM -RA FEW023 BKN030 OVC035 07/02 A3019
SW 53 nm 177' KCLS 021915Z 28007G18KT 230V320 10SM FEW029 SCT034 BKN048 09/03 A3021
N 55 nm 47' KNUW 021856Z 33008KT 8SM RA OVC019 06/02 A3023
NW 60 nm 13' KNOW 021850Z 00000KT 10SM OVC075 06/01 A3019
N 61 nm 145' KBVS 021915Z 19008G15KT 10SM BKN024 BKN031 OVC060 10/03 A3018
NW 62 nm 291' KCLM 021853Z VRB05KT 10SM SCT031 OVC075 06/01 A3018
NW 70 nm 112' KFHR 021853Z 12006KT 10SM OVC055 07/02 A3019
SW 72 nm 17' KHQM 021853Z 26011KT 10SM FEW030 BKN070 07/02 A3021
E 76 nm 1763' KELN 021853Z VRB03KT 10SM OVC075 05/M03 A3013
N 79 nm 34' KORS 021915Z 18008KT 10SM OVC080 07/03 A3017
N 81 nm 171' KBLI 021853Z 00000KT 6SM -RA SCT030 OVC035 04/01 A3019
S 83 nm 20' KKLS 021856Z 21004KT 10SM FEW032 09/01 A3023
NW 84 nm 64' CYYJ 021900Z 09007KT 070V150 30SM FEW030 BKN045 BKN062 BKN080 08/03 A3016
E 85 nm 1248' KEAT 021855Z VRB05KT 10SM OVC085 05/M09 A3013
SE 89 nm 1098' KYKM 021853Z 15004KT 10SM SCT090 08/M04 A3014
W 95 nm 193' KUIL 021853Z 24005KT 10SM SCT031 BKN040 OVC070 07/02 A3019
TAFs for airports near SEA, sorted by distance:
N 0 nm 432' KSEA TAF KSEA 021720Z 0218/0324 14005KT P6SM VCSH FEW008 SCT011 BKN040
  TEMPO 0218/0220 -SHRA BKN011
  FM022000 20007KT P6SM VCSH BKN040
  FM022300 23010KT P6SM VCSH BKN050
  FM030600 19006KT P6SM SCT050
  FM031200 19010KT P6SM BKN025
N 4 nm 21' KBFI TAF KBFI 021720Z 0218/0318 14008KT P6SM VCSH FEW015 SCT030 BKN040
  TEMPO 0218/0220 -SHRA BKN015
  FM022000 20007KT P6SM VCSH BKN040
  FM022300 23010KT P6SM VCSH BKN050
  FM030600 19006KT P6SM SCT050
  FM031200 19010KT P6SM BKN025
W 18 nm 444' KPWT TAF KPWT 021720Z 0218/0318 25005KT P6SM VCSH SCT009 BKN040
  TEMPO 0218/0220 -SHRA BKN004
  FM022000 20007KT P6SM VCSH BKN040
  FM022300 23010KT P6SM VCSH BKN050
  FM030600 19006KT P6SM SCT050
  FM031200 19010KT P6SM BKN020
S 19 nm 322' KTCM TAF KTCM 021303Z 0213/0319 20003KT 9000 -SHRA BKN015 610409 QNH3016INS
  TEMPO 0213/0217 BKN007
  BECMG 0216/0217 22006KT 9000 -SHRA BKN030 610309 QNH3016INS
  BECMG 0222/0223 23009KT 9999 NSW BKN040 620409 QNH3016INS
  BECMG 0306/0307 19006KT 9999 BKN040 620409 QNH3009INS TX09/0223Z TN02/0213Z
SW 24 nm 301' KGRF TAF
  AMD KGRF 021419Z 0214/0319 VRB06KT 9999 OVC040 QNH3016INS
  BECMG 0217/0218 17012KT 9000 -SHRA BKN040 510022 QNH3016INS
  BECMG 0301/0302 VRB06KT 9999 NSW BKN050 QNH3011INS
  BECMG 0316/0317 21008KT 9999 FEW030 BKN050 QNH3008INS TX08/0220Z TN02/0308Z
N 27 nm 607' KPAE TAF KPAE 021720Z 0218/0318 18007KT P6SM VCSH BKN030
  TEMPO 0218/0220 -SHRA
  FM022200 34008KT P6SM VCSH BKN040
  FM030700 17006KT P6SM SCT050
  FM031200 18010KT P6SM BKN020
SW 37 nm 207' KOLM TAF KOLM 021720Z 0218/0318 22006KT P6SM VCSH BKN050
  FM022100 25010KT P6SM VCSH BKN050
  FM030600 20004KT P6SM SCT040
  FM031000 21005KT P6SM BKN020
N 55 nm 47' KNUW TAF
  AMD KNUW 0217/0315 13007KT 9999 VCSH SCT008 BKN035 OVC050 640109 641008 QNH3018INS
  TEMPO 0217/0220 23010G16KT 9999 -SHRA SCT012 BKN020 OVC050
  FM022000 28012G18KT 9999 VCSH SCT015 BKN040 BKN070 640209 641108 QNH3016INS
  TEMPO 0220/0300 9000 -SHRA BR BKN020 OVC080
  FM030000 27010G18KT 9999 SCT008 BKN030 BKN070 640209 641108 QNH3014INS
  FM030500 23012G18KT 9000 -SHRA BR SCT008 BKN020 OVC035 640209 641108 530009 QNH3010INS
  TEMPO 0309/0315 16010KT 4800 SHRA BR BKN025 OVC040 T10/0222Z T03/0313Z
  AMD 1755 FS30004
NW 62 nm 291' KCLM TAF KCLM 021720Z 0218/0318 32008KT P6SM VCSH SCT045 BKN060
  FM022300 29012G18KT P6SM VCSH SCT050
  FM030900 27010KT P6SM SCT050
SW 72 nm 17' KHQM TAF KHQM 021720Z 0218/0318 26009KT P6SM VCSH BKN030 BKN050
  FM022100 27012KT P6SM VCSH BKN050
  FM030700 30006KT P6SM BKN040
N 81 nm 171' KBLI TAF KBLI 021720Z 0218/0318 18005KT P6SM VCSH FEW030 SCT050
  FM022000 22008KT P6SM VCSH BKN050
  FM030600 17010KT P6SM SCT050
E 85 nm 1248' KEAT KEAT 021736Z 0218/0318 15004KT P6SM FEW060
  FM030200 30007KT P6SM FEW250
SE 89 nm 1098' KYKM KYKM 021730Z 0218/0318 00000KT P6SM BKN080
  FM021900 16005KT P6SM FEW050 SCT080
  FM022300 25007KT P6SM SCT050 BKN080
  FM030300 28006KT P6SM SKC
  FM031700 31009KT P6SM FEW050

Shortcut to this page: http://wxbay.com.

Data may contain errors.